sensor_id;sensor_type;location;lat;lon;timestamp;pressure;altitude;pressure_sealevel;temperature;humidity
58698;BME280;44475;53.206;-6.106;2023-08-06T00:00:55;101722.22;;;24.84;47.78
58698;BME280;44475;53.206;-6.106;2023-08-06T00:03:21;101729.09;;;24.90;47.54
58698;BME280;44475;53.206;-6.106;2023-08-06T00:05:48;101728.72;;;24.83;47.70
58698;BME280;44475;53.206;-6.106;2023-08-06T00:08:14;101726.59;;;24.87;47.74
58698;BME280;44475;53.206;-6.106;2023-08-06T00:10:40;101733.94;;;24.86;47.52
58698;BME280;44475;53.206;-6.106;2023-08-06T00:13:07;101732.69;;;24.79;47.78
58698;BME280;44475;53.206;-6.106;2023-08-06T00:15:33;101737.94;;;24.82;47.63
58698;BME280;44475;53.206;-6.106;2023-08-06T00:18:00;101733.81;;;24.88;47.70
58698;BME280;44475;53.206;-6.106;2023-08-06T00:20:26;101736.78;;;24.85;47.53
58698;BME280;44475;53.206;-6.106;2023-08-06T00:22:52;101738.53;;;24.86;47.85
58698;BME280;44475;53.206;-6.106;2023-08-06T00:25:18;101738.81;;;24.83;47.60
58698;BME280;44475;53.206;-6.106;2023-08-06T00:27:45;101730.44;;;24.84;47.70
58698;BME280;44475;53.206;-6.106;2023-08-06T00:30:11;101732.69;;;24.79;47.93
58698;BME280;44475;53.206;-6.106;2023-08-06T00:32:38;101736.56;;;24.76;47.90
58698;BME280;44475;53.206;-6.106;2023-08-06T00:35:04;101733.06;;;24.86;47.59
58698;BME280;44475;53.206;-6.106;2023-08-06T00:37:30;101735.06;;;24.84;47.82
58698;BME280;44475;53.206;-6.106;2023-08-06T00:39:57;101736.31;;;24.80;47.94
58698;BME280;44475;53.206;-6.106;2023-08-06T00:42:23;101736.19;;;24.81;47.91
58698;BME280;44475;53.206;-6.106;2023-08-06T00:44:50;101738.81;;;24.83;47.59
58698;BME280;44475;53.206;-6.106;2023-08-06T00:47:17;101735.06;;;24.84;47.68
58698;BME280;44475;53.206;-6.106;2023-08-06T00:49:44;101738.66;;;24.84;47.77
58698;BME280;44475;53.206;-6.106;2023-08-06T00:52:11;101742.16;;;24.86;47.69
58698;BME280;44475;53.206;-6.106;2023-08-06T00:54:39;101746.16;;;24.82;47.68
58698;BME280;44475;53.206;-6.106;2023-08-06T00:57:07;101732.06;;;24.75;47.76
58698;BME280;44475;53.206;-6.106;2023-08-06T00:59:35;101736.78;;;24.85;47.63
58698;BME280;44475;53.206;-6.106;2023-08-06T01:02:02;101739.69;;;24.83;47.74
58698;BME280;44475;53.206;-6.106;2023-08-06T01:04:28;101737.19;;;24.80;47.74
58698;BME280;44475;53.206;-6.106;2023-08-06T01:12:20;101738.66;;;24.84;48.00
58698;BME280;44475;53.206;-6.106;2023-08-06T01:15:11;101735.44;;;24.79;47.67
58698;BME280;44475;53.206;-6.106;2023-08-06T01:17:39;101741.28;;;24.86;47.63
58698;BME280;44475;53.206;-6.106;2023-08-06T01:20:06;101735.06;;;24.84;47.68
58698;BME280;44475;53.206;-6.106;2023-08-06T01:22:33;101736.94;;;24.83;47.77
58698;BME280;44475;53.206;-6.106;2023-08-06T01:24:59;101738.81;;;24.83;47.97
58698;BME280;44475;53.206;-6.106;2023-08-06T01:27:46;101744.41;;;24.81;47.62
58698;BME280;44475;53.206;-6.106;2023-08-06T01:30:16;101752.50;;;24.83;47.68
58698;BME280;44475;53.206;-6.106;2023-08-06T01:32:46;101744.41;;;24.81;47.76
58698;BME280;44475;53.206;-6.106;2023-08-06T01:35:16;101747.75;;;24.85;47.73
58698;BME280;44475;53.206;-6.106;2023-08-06T01:37:43;101749.13;;;24.79;47.76
58698;BME280;44475;53.206;-6.106;2023-08-06T01:40:11;101743.91;;;24.87;47.59
58698;BME280;44475;53.206;-6.106;2023-08-06T01:42:40;101749.63;;;24.84;47.67
58698;BME280;44475;53.206;-6.106;2023-08-06T01:45:08;101750.66;;;24.83;47.43
58698;BME280;44475;53.206;-6.106;2023-08-06T01:47:35;101757.84;;;24.84;47.59
58698;BME280;44475;53.206;-6.106;2023-08-06T01:50:02;101754.88;;;24.87;47.44
58698;BME280;44475;53.206;-6.106;2023-08-06T01:52:28;101755.25;;;24.83;47.71
58698;BME280;44475;53.206;-6.106;2023-08-06T01:54:55;101763.31;;;24.84;47.57
58698;BME280;44475;53.206;-6.106;2023-08-06T01:57:21;101760.75;;;24.83;47.66
58698;BME280;44475;53.206;-6.106;2023-08-06T01:59:48;101773.81;;;24.79;47.68
58698;BME280;44475;53.206;-6.106;2023-08-06T02:02:14;101772.41;;;24.85;47.44
58698;BME280;44475;53.206;-6.106;2023-08-06T02:04:40;101739.69;;;24.72;47.50
58698;BME280;44475;53.206;-6.106;2023-08-06T02:07:06;101771.53;;;24.84;47.59
58698;BME280;44475;53.206;-6.106;2023-08-06T02:09:33;101763.97;;;24.88;47.39
58698;BME280;44475;53.206;-6.106;2023-08-06T02:12:01;101761.47;;;24.85;47.53
58698;BME280;44475;53.206;-6.106;2023-08-06T02:14:28;101766.81;;;24.86;47.39
58698;BME280;44475;53.206;-6.106;2023-08-06T02:16:54;101767.97;;;24.84;47.54
58698;BME280;44475;53.206;-6.106;2023-08-06T02:19:21;101762.47;;;24.84;47.33
58698;BME280;44475;53.206;-6.106;2023-08-06T02:21:47;101767.09;;;24.83;47.40
58698;BME280;44475;53.206;-6.106;2023-08-06T02:24:13;101768.81;;;24.84;47.48
58698;BME280;44475;53.206;-6.106;2023-08-06T02:26:39;101771.81;;;24.81;47.55
58698;BME280;44475;53.206;-6.106;2023-08-06T02:29:05;101769.09;;;24.81;47.51
58698;BME280;44475;53.206;-6.106;2023-08-06T02:31:32;101769.84;;;24.83;47.41
58698;BME280;44475;53.206;-6.106;2023-08-06T02:33:58;101763.97;;;24.76;47.42
58698;BME280;44475;53.206;-6.106;2023-08-06T02:36:24;101762.59;;;24.82;47.55
58698;BME280;44475;53.206;-6.106;2023-08-06T02:38:53;101759.75;;;24.84;47.39
58698;BME280;44475;53.206;-6.106;2023-08-06T02:41:19;101763.59;;;24.81;47.53
58698;BME280;44475;53.206;-6.106;2023-08-06T02:43:45;101756.25;;;24.82;47.38
58698;BME280;44475;53.206;-6.106;2023-08-06T02:46:11;101752.38;;;24.84;47.30
58698;BME280;44475;53.206;-6.106;2023-08-06T02:48:38;101749.50;;;24.86;47.38
58698;BME280;44475;53.206;-6.106;2023-08-06T02:51:04;101746.16;;;24.82;47.38
58698;BME280;44475;53.206;-6.106;2023-08-06T02:53:32;101751.00;;;24.78;47.64
58698;BME280;44475;53.206;-6.106;2023-08-06T02:56:00;101758.13;;;24.81;47.53
58698;BME280;44475;53.206;-6.106;2023-08-06T02:58:35;101746.53;;;24.77;47.55
58698;BME280;44475;53.206;-6.106;2023-08-06T03:01:13;101754.38;;;24.82;47.43
58698;BME280;44475;53.206;-6.106;2023-08-06T03:03:49;101750.66;;;24.83;47.46
58698;BME280;44475;53.206;-6.106;2023-08-06T03:06:21;101745.41;;;24.80;47.67
58698;BME280;44475;53.206;-6.106;2023-08-06T03:08:51;101739.53;;;24.85;47.30
58698;BME280;44475;53.206;-6.106;2023-08-06T03:11:18;101743.16;;;24.85;47.19
58698;BME280;44475;53.206;-6.106;2023-08-06T03:13:44;101736.06;;;24.83;47.34
58698;BME280;44475;53.206;-6.106;2023-08-06T03:16:11;101739.69;;;24.83;47.39
58698;BME280;44475;53.206;-6.106;2023-08-06T03:18:38;101745.41;;;24.80;47.62
58698;BME280;44475;53.206;-6.106;2023-08-06T03:21:07;101742.16;;;24.86;47.50
58698;BME280;44475;53.206;-6.106;2023-08-06T03:23:33;101735.19;;;24.82;47.46
58698;BME280;44475;53.206;-6.106;2023-08-06T03:26:03;101740.91;;;24.79;47.50
58698;BME280;44475;53.206;-6.106;2023-08-06T03:28:31;101731.69;;;24.80;47.56
58698;BME280;44475;53.206;-6.106;2023-08-06T03:31:02;101740.69;;;24.82;47.38
58698;BME280;44475;53.206;-6.106;2023-08-06T03:33:34;101735.44;;;24.79;47.48
58698;BME280;44475;53.206;-6.106;2023-08-06T03:36:01;101734.44;;;24.80;47.56
58698;BME280;44475;53.206;-6.106;2023-08-06T03:38:29;101737.06;;;24.82;47.35
58698;BME280;44475;53.206;-6.106;2023-08-06T03:40:55;101730.84;;;24.80;47.47
58698;BME280;44475;53.206;-6.106;2023-08-06T03:43:21;101734.69;;;24.77;47.43
58698;BME280;44475;53.206;-6.106;2023-08-06T03:45:48;101736.44;;;24.78;47.58
58698;BME280;44475;53.206;-6.106;2023-08-06T03:48:14;101723.84;;;24.87;47.25
58698;BME280;44475;53.206;-6.106;2023-08-06T03:50:41;101735.06;;;24.84;47.38
58698;BME280;44475;53.206;-6.106;2023-08-06T03:53:11;101737.81;;;24.84;47.33
58698;BME280;44475;53.206;-6.106;2023-08-06T03:55:38;101737.19;;;24.80;47.47
58698;BME280;44475;53.206;-6.106;2023-08-06T03:58:04;101728.72;;;24.83;47.55
58698;BME280;44475;53.206;-6.106;2023-08-06T04:00:30;101734.31;;;24.82;47.54
58698;BME280;44475;53.206;-6.106;2023-08-06T04:02:57;101739.69;;;24.83;47.27
58698;BME280;44475;53.206;-6.106;2023-08-06T04:05:23;101737.06;;;24.82;47.43
58698;BME280;44475;53.206;-6.106;2023-08-06T04:07:49;101741.28;;;24.86;47.44
58698;BME280;44475;53.206;-6.106;2023-08-06T04:10:16;101733.31;;;24.83;47.40
58698;BME280;44475;53.206;-6.106;2023-08-06T04:12:42;101736.06;;;24.83;47.39
58698;BME280;44475;53.206;-6.106;2023-08-06T04:15:08;101738.94;;;24.81;47.61
58698;BME280;44475;53.206;-6.106;2023-08-06T04:17:35;101741.03;;;24.77;47.39
58698;BME280;44475;53.206;-6.106;2023-08-06T04:20:01;101746.28;;;24.81;47.38
58698;BME280;44475;53.206;-6.106;2023-08-06T04:22:28;101739.69;;;24.83;47.31
58698;BME280;44475;53.206;-6.106;2023-08-06T04:24:54;101743.41;;;24.82;47.31
58698;BME280;44475;53.206;-6.106;2023-08-06T04:27:20;101740.28;;;24.87;47.21
58698;BME280;44475;53.206;-6.106;2023-08-06T04:29:48;101750.78;;;24.82;47.49
58698;BME280;44475;53.206;-6.106;2023-08-06T04:32:15;101752.75;;;24.80;47.45
58698;BME280;44475;53.206;-6.106;2023-08-06T04:34:46;101754.50;;;24.81;47.45
58698;BME280;44475;53.206;-6.106;2023-08-06T04:37:14;101756.72;;;24.87;47.27
58698;BME280;44475;53.206;-6.106;2023-08-06T04:39:40;101755.97;;;24.85;47.28
58698;BME280;44475;53.206;-6.106;2023-08-06T04:42:07;101752.50;;;24.83;47.45
58698;BME280;44475;53.206;-6.106;2023-08-06T04:44:33;101757.47;;;24.77;47.42
58698;BME280;44475;53.206;-6.106;2023-08-06T04:46:59;101752.75;;;24.80;47.51
58698;BME280;44475;53.206;-6.106;2023-08-06T04:49:25;101747.75;;;24.85;47.44
58698;BME280;44475;53.206;-6.106;2023-08-06T04:51:52;101748.78;;;24.84;47.30
58698;BME280;44475;53.206;-6.106;2023-08-06T04:54:18;101749.63;;;24.84;47.38
58698;BME280;44475;53.206;-6.106;2023-08-06T04:56:44;101753.63;;;24.80;47.26
58698;BME280;44475;53.206;-6.106;2023-08-06T04:59:10;101759.00;;;24.82;47.56
58698;BME280;44475;53.206;-6.106;2023-08-06T05:01:36;101761.84;;;24.80;47.57
58698;BME280;44475;53.206;-6.106;2023-08-06T05:04:03;101769.19;;;24.80;47.58
58698;BME280;44475;53.206;-6.106;2023-08-06T05:06:29;101768.22;;;24.81;47.24
58698;BME280;44475;53.206;-6.106;2023-08-06T05:08:55;101777.41;;;24.68;47.64
58698;BME280;44475;53.206;-6.106;2023-08-06T05:11:22;101780.13;;;24.56;47.85
58698;BME280;44475;53.206;-6.106;2023-08-06T05:13:48;101780.91;;;24.70;47.68
58698;BME280;44475;53.206;-6.106;2023-08-06T05:16:14;101736.06;;;24.60;47.09
58698;BME280;44475;53.206;-6.106;2023-08-06T05:18:40;101779.94;;;24.83;47.42
58698;BME280;44475;53.206;-6.106;2023-08-06T05:21:07;101783.28;;;24.86;47.40
58698;BME280;44475;53.206;-6.106;2023-08-06T05:23:34;101795.09;;;24.75;47.67
58698;BME280;44475;53.206;-6.106;2023-08-06T05:26:00;101782.41;;;24.63;47.85
58698;BME280;44475;53.206;-6.106;2023-08-06T05:28:26;101783.78;;;24.80;47.49
58698;BME280;44475;53.206;-6.106;2023-08-06T05:30:52;101789.38;;;24.78;47.41
58698;BME280;44475;53.206;-6.106;2023-08-06T05:33:19;101789.38;;;24.78;47.52
58698;BME280;44475;53.206;-6.106;2023-08-06T05:35:45;101796.84;;;24.76;47.56
58698;BME280;44475;53.206;-6.106;2023-08-06T05:38:11;101796.22;;;24.84;47.40
58698;BME280;44475;53.206;-6.106;2023-08-06T05:40:37;101801.56;;;24.74;47.76
58698;BME280;44475;53.206;-6.106;2023-08-06T05:43:04;101796.25;;;24.73;47.52
58698;BME280;44475;53.206;-6.106;2023-08-06T05:45:30;101799.13;;;24.83;47.35
58698;BME280;44475;53.206;-6.106;2023-08-06T05:47:56;101804.19;;;24.76;47.52
58698;BME280;44475;53.206;-6.106;2023-08-06T05:50:24;101803.72;;;24.82;47.42
58698;BME280;44475;53.206;-6.106;2023-08-06T05:52:50;101806.81;;;24.77;47.58
58698;BME280;44475;53.206;-6.106;2023-08-06T05:55:18;101817.50;;;24.57;48.01
58698;BME280;44475;53.206;-6.106;2023-08-06T05:57:44;101811.53;;;24.64;47.87
58698;BME280;44475;53.206;-6.106;2023-08-06T06:00:11;101819.53;;;24.78;47.52
58698;BME280;44475;53.206;-6.106;2023-08-06T06:02:40;101807.19;;;24.84;47.75
58698;BME280;44475;53.206;-6.106;2023-08-06T06:05:06;101814.66;;;24.59;47.97
58698;BME280;44475;53.206;-6.106;2023-08-06T06:07:32;101812.41;;;24.76;47.70
58698;BME280;44475;53.206;-6.106;2023-08-06T06:09:59;101820.63;;;24.76;47.62
58698;BME280;44475;53.206;-6.106;2023-08-06T06:12:25;101819.75;;;24.75;47.60
58698;BME280;44475;53.206;-6.106;2023-08-06T06:14:52;101824.88;;;24.68;47.80
58698;BME280;44475;53.206;-6.106;2023-08-06T06:17:18;101828.50;;;24.81;47.26
58698;BME280;44475;53.206;-6.106;2023-08-06T06:19:44;101822.03;;;24.82;47.59
58698;BME280;44475;53.206;-6.106;2023-08-06T06:22:10;101829.09;;;24.61;47.97
58698;BME280;44475;53.206;-6.106;2023-08-06T06:24:37;101832.44;;;24.53;48.18
58698;BME280;44475;53.206;-6.106;2023-08-06T06:27:03;101832.84;;;24.60;48.04
58698;BME280;44475;53.206;-6.106;2023-08-06T06:29:30;101834.19;;;24.54;48.02
58698;BME280;44475;53.206;-6.106;2023-08-06T06:31:56;101828.91;;;24.39;48.35
58698;BME280;44475;53.206;-6.106;2023-08-06T06:34:22;101840.19;;;24.71;47.64
58698;BME280;44475;53.206;-6.106;2023-08-06T06:36:48;101836.47;;;24.72;47.77
58698;BME280;44475;53.206;-6.106;2023-08-06T06:39:17;101840.56;;;24.66;47.89
58698;BME280;44475;53.206;-6.106;2023-08-06T06:41:43;101841.66;;;24.64;47.98
58698;BME280;44475;53.206;-6.106;2023-08-06T06:44:18;101848.91;;;24.76;47.63
58698;BME280;44475;53.206;-6.106;2023-08-06T06:46:46;101840.22;;;24.83;47.35
58698;BME280;44475;53.206;-6.106;2023-08-06T06:49:12;101821.59;;;24.63;47.46
58698;BME280;44475;53.206;-6.106;2023-08-06T06:51:39;101848.66;;;24.68;47.63
58698;BME280;44475;53.206;-6.106;2023-08-06T06:54:05;101850.19;;;24.72;47.79
58698;BME280;44475;53.206;-6.106;2023-08-06T06:56:31;101854.13;;;24.68;47.74
58698;BME280;44475;53.206;-6.106;2023-08-06T06:58:57;101861.41;;;24.81;47.48
58698;BME280;44475;53.206;-6.106;2023-08-06T07:01:24;101860.00;;;24.75;47.67
58698;BME280;44475;53.206;-6.106;2023-08-06T07:03:50;101858.66;;;24.81;47.37
58698;BME280;44475;53.206;-6.106;2023-08-06T07:06:16;101851.44;;;24.80;47.62
58698;BME280;44475;53.206;-6.106;2023-08-06T07:08:44;101851.31;;;24.81;47.55
58698;BME280;44475;53.206;-6.106;2023-08-06T07:11:11;101857.03;;;24.90;47.42
58698;BME280;44475;53.206;-6.106;2023-08-06T07:13:37;101858.41;;;24.84;47.47
58698;BME280;44475;53.206;-6.106;2023-08-06T07:16:03;101860.28;;;24.83;47.50
58698;BME280;44475;53.206;-6.106;2023-08-06T07:18:30;101857.25;;;24.75;47.53
58698;BME280;44475;53.206;-6.106;2023-08-06T07:20:56;101853.06;;;24.82;47.65
58698;BME280;44475;53.206;-6.106;2023-08-06T07:23:25;101848.91;;;24.76;47.52
58698;BME280;44475;53.206;-6.106;2023-08-06T07:25:51;101858.75;;;24.67;47.91
58698;BME280;44475;53.206;-6.106;2023-08-06T07:28:18;101817.19;;;24.37;47.97
58698;BME280;44475;53.206;-6.106;2023-08-06T07:30:45;101845.91;;;24.32;48.33
58698;BME280;44475;53.206;-6.106;2023-08-06T07:33:12;101851.38;;;24.20;49.01
58698;BME280;44475;53.206;-6.106;2023-08-06T07:35:39;101854.94;;;24.09;49.14
58698;BME280;44475;53.206;-6.106;2023-08-06T07:38:05;101852.53;;;24.04;49.26
58698;BME280;44475;53.206;-6.106;2023-08-06T07:40:31;101851.38;;;24.32;48.72
58698;BME280;44475;53.206;-6.106;2023-08-06T07:42:58;101856.63;;;24.35;48.54
58698;BME280;44475;53.206;-6.106;2023-08-06T07:45:24;101852.78;;;24.37;48.27
58698;BME280;44475;53.206;-6.106;2023-08-06T07:47:52;101849.59;;;24.44;48.37
58698;BME280;44475;53.206;-6.106;2023-08-06T07:50:19;101842.56;;;24.28;48.54
58698;BME280;44475;53.206;-6.106;2023-08-06T07:52:45;101854.59;;;24.25;48.61
58698;BME280;44475;53.206;-6.106;2023-08-06T07:55:11;101850.59;;;24.18;48.99
58698;BME280;44475;53.206;-6.106;2023-08-06T07:57:37;101856.84;;;24.20;48.62
58698;BME280;44475;53.206;-6.106;2023-08-06T08:00:04;101850.13;;;24.24;48.79
58698;BME280;44475;53.206;-6.106;2023-08-06T08:02:38;101857.09;;;24.53;48.03
58698;BME280;44475;53.206;-6.106;2023-08-06T08:05:05;101855.78;;;24.71;47.63
58698;BME280;44475;53.206;-6.106;2023-08-06T08:07:33;101850.28;;;24.71;47.63
58698;BME280;44475;53.206;-6.106;2023-08-06T08:09:59;101852.41;;;24.78;47.30
58698;BME280;44475;53.206;-6.106;2023-08-06T08:12:25;101849.03;;;24.75;47.62
58698;BME280;44475;53.206;-6.106;2023-08-06T08:14:52;101856.28;;;24.87;47.34
58698;BME280;44475;53.206;-6.106;2023-08-06T08:17:18;101855.41;;;24.87;47.35
58698;BME280;44475;53.206;-6.106;2023-08-06T08:19:44;101862.28;;;24.81;47.42
58698;BME280;44475;53.206;-6.106;2023-08-06T08:22:10;101851.03;;;24.61;47.95
58698;BME280;44475;53.206;-6.106;2023-08-06T08:24:37;101850.63;;;24.66;47.88
58698;BME280;44475;53.206;-6.106;2023-08-06T08:27:03;101855.16;;;24.78;47.52
58698;BME280;44475;53.206;-6.106;2023-08-06T08:29:29;101855.38;;;24.75;47.59
58698;BME280;44475;53.206;-6.106;2023-08-06T08:31:56;101850.91;;;24.86;47.17
58698;BME280;44475;53.206;-6.106;2023-08-06T08:34:22;101848.91;;;24.76;47.47
58698;BME280;44475;53.206;-6.106;2023-08-06T08:36:48;101849.06;;;24.86;47.29
58698;BME280;44475;53.206;-6.106;2023-08-06T08:39:16;101847.72;;;24.92;47.10
58698;BME280;44475;53.206;-6.106;2023-08-06T08:41:42;101846.81;;;24.80;47.54
58698;BME280;44475;53.206;-6.106;2023-08-06T08:44:09;101841.34;;;24.92;47.12
58698;BME280;44475;53.206;-6.106;2023-08-06T08:46:38;101844.84;;;24.82;47.33
58698;BME280;44475;53.206;-6.106;2023-08-06T08:49:04;101846.94;;;24.90;47.18
58698;BME280;44475;53.206;-6.106;2023-08-06T08:51:33;101848.44;;;24.83;47.39
58698;BME280;44475;53.206;-6.106;2023-08-06T08:53:59;101842.97;;;24.83;47.29
58698;BME280;44475;53.206;-6.106;2023-08-06T08:56:26;101855.03;;;24.80;47.67
58698;BME280;44475;53.206;-6.106;2023-08-06T08:58:52;101855.38;;;24.75;47.45
58698;BME280;44475;53.206;-6.106;2023-08-06T09:01:22;101853.19;;;24.92;47.36
58698;BME280;44475;53.206;-6.106;2023-08-06T09:03:48;101853.16;;;24.81;47.84
58698;BME280;44475;53.206;-6.106;2023-08-06T09:06:16;101854.66;;;24.85;47.63
58698;BME280;44475;53.206;-6.106;2023-08-06T09:08:59;101857.78;;;24.80;47.41
58698;BME280;44475;53.206;-6.106;2023-08-06T09:11:26;101853.31;;;24.91;47.29
58698;BME280;44475;53.206;-6.106;2023-08-06T09:13:54;101859.16;;;24.86;47.32
58698;BME280;44475;53.206;-6.106;2023-08-06T09:16:21;101852.91;;;24.95;47.27
58698;BME280;44475;53.206;-6.106;2023-08-06T09:18:47;101835.63;;;24.83;47.21
58698;BME280;44475;53.206;-6.106;2023-08-06T09:21:14;101856.03;;;24.91;47.24
58698;BME280;44475;53.206;-6.106;2023-08-06T09:23:42;101856.28;;;24.87;47.49
58698;BME280;44475;53.206;-6.106;2023-08-06T09:26:13;101854.81;;;24.83;47.53
58698;BME280;44475;53.206;-6.106;2023-08-06T09:28:39;101852.66;;;24.75;47.71
58698;BME280;44475;53.206;-6.106;2023-08-06T09:31:09;101856.00;;;24.67;47.94
58698;BME280;44475;53.206;-6.106;2023-08-06T09:33:39;101867.81;;;24.56;47.89
58698;BME280;44475;53.206;-6.106;2023-08-06T09:36:09;101863.34;;;24.67;48.04
58698;BME280;44475;53.206;-6.106;2023-08-06T09:38:40;101868.25;;;24.86;47.39
58698;BME280;44475;53.206;-6.106;2023-08-06T09:41:07;101869.84;;;24.77;47.71
58698;BME280;44475;53.206;-6.106;2023-08-06T09:43:43;101873.13;;;24.94;47.36
58698;BME280;44475;53.206;-6.106;2023-08-06T09:46:13;101866.38;;;24.87;47.46
58698;BME280;44475;53.206;-6.106;2023-08-06T09:48:40;101869.00;;;24.88;47.58
58698;BME280;44475;53.206;-6.106;2023-08-06T09:51:08;101880.94;;;24.76;47.57
58698;BME280;44475;53.206;-6.106;2023-08-06T09:53:37;101865.50;;;24.86;47.20
58698;BME280;44475;53.206;-6.106;2023-08-06T09:56:04;101869.38;;;24.84;47.52
58698;BME280;44475;53.206;-6.106;2023-08-06T09:58:32;101862.75;;;24.75;46.91
58698;BME280;44475;53.206;-6.106;2023-08-06T10:00:59;101864.28;;;24.91;45.59
58698;BME280;44475;53.206;-6.106;2023-08-06T10:03:28;101866.28;;;24.16;45.38
58698;BME280;44475;53.206;-6.106;2023-08-06T10:05:56;101851.59;;;23.67;46.68
58698;BME280;44475;53.206;-6.106;2023-08-06T10:08:23;101870.59;;;23.69;46.51
58698;BME280;44475;53.206;-6.106;2023-08-06T10:10:49;101881.19;;;23.87;46.52
58698;BME280;44475;53.206;-6.106;2023-08-06T10:13:17;101878.00;;;24.18;45.06
58698;BME280;44475;53.206;-6.106;2023-08-06T10:15:45;101882.25;;;23.97;45.01
58698;BME280;44475;53.206;-6.106;2023-08-06T10:18:12;101879.25;;;23.76;45.92
58698;BME280;44475;53.206;-6.106;2023-08-06T10:20:40;101879.78;;;23.81;46.34
58698;BME280;44475;53.206;-6.106;2023-08-06T10:23:06;101880.00;;;24.03;46.03
58698;BME280;44475;53.206;-6.106;2023-08-06T10:25:41;101880.94;;;23.90;45.58
58698;BME280;44475;53.206;-6.106;2023-08-06T10:28:12;101884.91;;;23.86;45.14
58698;BME280;44475;53.206;-6.106;2023-08-06T10:30:46;101886.31;;;23.27;45.68
58698;BME280;44475;53.206;-6.106;2023-08-06T10:33:13;101888.72;;;23.45;45.71
58698;BME280;44475;53.206;-6.106;2023-08-06T10:35:47;101892.63;;;23.67;45.73
58698;BME280;44475;53.206;-6.106;2023-08-06T10:38:24;101882.28;;;23.84;46.43
58698;BME280;44475;53.206;-6.106;2023-08-06T10:43:32;101879.84;;;23.93;45.32
58698;BME280;44475;53.206;-6.106;2023-08-06T10:46:01;101877.66;;;23.98;45.30
58698;BME280;44475;53.206;-6.106;2023-08-06T10:48:41;101886.91;;;24.08;45.04
58698;BME280;44475;53.206;-6.106;2023-08-06T10:51:13;101888.72;;;23.96;45.26
58698;BME280;44475;53.206;-6.106;2023-08-06T10:53:47;101888.63;;;23.85;45.89
58698;BME280;44475;53.206;-6.106;2023-08-06T10:58:47;101846.16;;;23.79;46.03
58698;BME280;44475;53.206;-6.106;2023-08-06T11:01:14;101871.09;;;24.12;45.91
58698;BME280;44475;53.206;-6.106;2023-08-06T11:03:42;101872.25;;;24.21;45.46
58698;BME280;44475;53.206;-6.106;2023-08-06T11:06:09;101869.66;;;24.19;44.26
58698;BME280;44475;53.206;-6.106;2023-08-06T11:08:46;101869.19;;;24.01;45.92
58698;BME280;44475;53.206;-6.106;2023-08-06T11:11:14;101865.63;;;24.12;45.29
58698;BME280;44475;53.206;-6.106;2023-08-06T11:13:45;101866.38;;;23.89;46.11
58698;BME280;44475;53.206;-6.106;2023-08-06T11:16:22;101880.81;;;23.54;47.50
58698;BME280;44475;53.206;-6.106;2023-08-06T11:18:51;101869.41;;;23.60;47.18
58698;BME280;44475;53.206;-6.106;2023-08-06T11:21:21;101867.91;;;23.56;47.95
58698;BME280;44475;53.206;-6.106;2023-08-06T11:23:47;101874.34;;;23.55;47.89
58698;BME280;44475;53.206;-6.106;2023-08-06T11:26:21;101881.50;;;23.44;48.21
58698;BME280;44475;53.206;-6.106;2023-08-06T11:28:49;101882.25;;;23.46;48.26
58698;BME280;44475;53.206;-6.106;2023-08-06T11:31:20;101879.75;;;23.30;48.78
58698;BME280;44475;53.206;-6.106;2023-08-06T11:33:46;101882.06;;;23.23;49.01
58698;BME280;44475;53.206;-6.106;2023-08-06T11:36:12;101888.72;;;23.32;48.88
58698;BME280;44475;53.206;-6.106;2023-08-06T11:38:39;101880.63;;;23.44;48.53
58698;BME280;44475;53.206;-6.106;2023-08-06T11:41:07;101890.81;;;23.28;49.32
58698;BME280;44475;53.206;-6.106;2023-08-06T11:43:33;101886.31;;;23.27;48.99
58698;BME280;44475;53.206;-6.106;2023-08-06T11:45:59;101886.41;;;23.26;49.24
58698;BME280;44475;53.206;-6.106;2023-08-06T11:48:26;101884.63;;;23.77;48.36
58698;BME280;44475;53.206;-6.106;2023-08-06T11:50:55;101892.31;;;23.46;48.14
58698;BME280;44475;53.206;-6.106;2023-08-06T11:53:27;101898.63;;;23.73;48.24
58698;BME280;44475;53.206;-6.106;2023-08-06T11:55:55;101896.13;;;23.56;48.39
58698;BME280;44475;53.206;-6.106;2023-08-06T11:58:21;101902.25;;;23.47;48.73
58698;BME280;44475;53.206;-6.106;2023-08-06T12:00:47;101903.69;;;23.53;48.77
58698;BME280;44475;53.206;-6.106;2023-08-06T12:03:14;101897.63;;;23.61;48.42
58698;BME280;44475;53.206;-6.106;2023-08-06T12:05:40;101895.69;;;23.63;48.70
58698;BME280;44475;53.206;-6.106;2023-08-06T12:08:06;101888.09;;;23.79;48.48
58698;BME280;44475;53.206;-6.106;2023-08-06T12:10:34;101885.72;;;23.75;48.67
58698;BME280;44475;53.206;-6.106;2023-08-06T12:13:01;101886.59;;;23.75;48.98
58698;BME280;44475;53.206;-6.106;2023-08-06T12:15:28;101883.63;;;24.03;48.38
58698;BME280;44475;53.206;-6.106;2023-08-06T12:17:54;101881.28;;;24.10;48.34
58698;BME280;44475;53.206;-6.106;2023-08-06T12:20:21;101879.59;;;24.21;47.95
58698;BME280;44475;53.206;-6.106;2023-08-06T12:22:47;101878.53;;;23.98;48.53
58698;BME280;44475;53.206;-6.106;2023-08-06T12:25:14;101879.56;;;23.84;49.12
58698;BME280;44475;53.206;-6.106;2023-08-06T12:27:42;101878.69;;;24.08;48.48
58698;BME280;44475;53.206;-6.106;2023-08-06T12:30:09;101849.41;;;23.97;48.23
58698;BME280;44475;53.206;-6.106;2023-08-06T12:32:37;101875.75;;;24.23;48.62
58698;BME280;44475;53.206;-6.106;2023-08-06T12:35:04;101883.50;;;24.29;48.26
58698;BME280;44475;53.206;-6.106;2023-08-06T12:37:31;101878.78;;;24.32;48.90
58698;BME280;44475;53.206;-6.106;2023-08-06T12:39:57;101883.69;;;24.15;49.50
58698;BME280;44475;53.206;-6.106;2023-08-06T12:42:23;101882.16;;;24.11;48.94
58698;BME280;44475;53.206;-6.106;2023-08-06T12:44:50;101888.44;;;23.99;49.44
58698;BME280;44475;53.206;-6.106;2023-08-06T12:47:17;101881.91;;;23.89;49.54
58698;BME280;44475;53.206;-6.106;2023-08-06T12:49:44;101891.03;;;24.14;49.13
58698;BME280;44475;53.206;-6.106;2023-08-06T12:52:10;101892.44;;;24.20;48.98